Time;durP1;ratioP1;P1;durP2;ratioP2;P2;SDS_P1;SDS_P2;PMS_P1;PMS_P2;Temp;Humidity;BMP_temperature;BMP_pressure;BME280_temperature;BME280_humidity;BME280_pressure;Samples;Min_cycle;Max_cycle;Signal;HPM_P1;HPM_P2
2023/07/10 00:01:53;;;;;;;12.37;8.93;;;;;20.50;97403.00;;;;5005080;28;20206;-91
2023/07/10 00:04:42;;;;;;;11.30;8.83;;;;;20.40;97399.00;;;;5011593;28;20209;-89
2023/07/10 00:07:31;;;;;;;11.83;9.20;;;;;20.10;97403.00;;;;5002432;28;20228;-91
2023/07/10 00:10:28;;;;;;;11.53;8.30;;;;;19.80;97413.00;;;;5002620;28;20204;-90
2023/07/10 00:13:21;;;;;;;11.30;8.60;;;;;19.50;97401.00;;;;4995308;28;20206;-93
2023/07/10 00:16:14;;;;;;;8.53;7.63;;;;;19.50;97407.00;;;;4999154;28;20231;-88
2023/07/10 00:19:11;;;;;;;11.07;7.70;;;;;19.80;97396.00;;;;5000389;28;20249;-89
2023/07/10 00:22:00;;;;;;;11.97;10.47;;;;;20.00;97403.00;;;;5000036;28;20210;-91
2023/07/10 00:24:49;;;;;;;11.83;8.70;;;;;20.10;97401.00;;;;5007289;28;20206;-91
2023/07/10 00:27:40;;;;;;;10.90;8.77;;;;;20.40;97404.00;;;;5006520;28;20721;-91
2023/07/10 00:30:31;;;;;;;9.17;8.03;;;;;20.40;97401.00;;;;5007291;28;20245;-91
2023/07/10 00:33:21;;;;;;;9.67;8.67;;;;;20.20;97395.00;;;;5008119;28;20272;-92
2023/07/10 00:36:26;;;;;;;11.60;8.53;;;;;20.00;97402.00;;;;5006281;28;20224;-89
2023/07/10 00:39:21;;;;;;;11.07;8.10;;;;;19.90;97402.00;;;;4995583;28;20230;-90
2023/07/10 00:42:15;;;;;;;9.93;7.40;;;;;19.50;97398.00;;;;5003067;28;20215;-90
2023/07/10 00:45:06;;;;;;;10.03;8.13;;;;;19.20;97401.00;;;;5003397;28;20206;-89
2023/07/10 00:48:06;;;;;;;10.60;9.37;;;;;19.00;97401.00;;;;5009127;28;20222;-90
2023/07/10 00:50:56;;;;;;;9.37;8.17;;;;;19.00;97397.00;;;;5002466;28;20207;-90
2023/07/10 00:53:45;;;;;;;11.93;9.40;;;;;19.10;97388.00;;;;5003457;28;20195;-91
2023/07/10 00:56:40;;;;;;;10.83;9.03;;;;;18.90;97390.00;;;;5004301;28;20225;-89
2023/07/10 00:59:30;;;;;;;11.73;9.10;;;;;19.20;97392.00;;;;4997988;28;20222;-89
2023/07/10 01:02:23;;;;;;;11.03;9.23;;;;;19.00;97396.00;;;;5002123;28;20206;-90
2023/07/10 01:05:13;;;;;;;10.10;8.10;;;;;19.00;97398.00;;;;5005107;28;20202;-90
2023/07/10 01:08:02;;;;;;;10.50;8.87;;;;;18.70;97391.00;;;;4996853;28;20225;-91
2023/07/10 01:10:51;;;;;;;9.80;8.83;;;;;18.80;97392.00;;;;4999662;28;20201;-91
2023/07/10 01:13:42;;;;;;;13.33;9.20;;;;;18.90;97387.00;;;;5005340;28;20206;-90
2023/07/10 01:16:32;;;;;;;9.97;8.57;;;;;19.00;97397.00;;;;5002558;28;20227;-90
2023/07/10 01:19:24;;;;;;;9.53;8.23;;;;;18.70;97394.00;;;;5015282;28;20663;-91
2023/07/10 01:22:15;;;;;;;10.20;9.07;;;;;18.90;97397.00;;;;5009258;28;20208;-90
2023/07/10 01:25:05;;;;;;;11.03;8.70;;;;;18.70;97390.00;;;;5005623;28;20246;-91
2023/07/10 01:27:54;;;;;;;9.53;8.57;;;;;18.50;97393.00;;;;4995865;28;20225;-90
2023/07/10 01:30:43;;;;;;;11.63;9.13;;;;;19.10;97386.00;;;;5003056;28;20221;-92
2023/07/10 01:33:36;;;;;;;12.80;9.40;;;;;19.10;97390.00;;;;5003035;28;20205;-90
2023/07/10 01:36:28;;;;;;;11.03;9.87;;;;;19.10;97388.00;;;;5003456;28;20227;-90
2023/07/10 01:39:29;;;;;;;9.83;8.10;;;;;18.80;97379.00;;;;5013338;28;20225;-90
2023/07/10 01:42:18;;;;;;;10.40;9.23;;;;;18.10;97375.00;;;;4994473;28;20704;-88
2023/07/10 01:45:12;;;;;;;11.57;9.37;;;;;18.50;97392.00;;;;5000186;28;20217;-91
2023/07/10 01:48:01;;;;;;;10.23;8.47;;;;;18.40;97382.00;;;;5001442;28;20206;-90
2023/07/10 01:50:51;;;;;;;11.20;10.03;;;;;18.50;97391.00;;;;5003131;28;20202;-91
2023/07/10 01:53:40;;;;;;;10.50;9.43;;;;;18.90;97388.00;;;;4997331;28;20383;-91
2023/07/10 01:56:31;;;;;;;9.83;8.93;;;;;19.10;97394.00;;;;5010477;28;20230;-90
2023/07/10 01:59:20;;;;;;;15.03;10.67;;;;;19.30;97377.00;;;;5004461;28;20249;-92
2023/07/10 02:02:10;;;;;;;9.30;8.40;;;;;19.50;97382.00;;;;5002733;28;20210;-91
2023/07/10 02:04:59;;;;;;;11.83;8.90;;;;;19.60;97373.00;;;;5006309;28;20751;-89
2023/07/10 02:07:48;;;;;;;10.77;9.10;;;;;19.40;97373.00;;;;4997861;28;20214;-90
2023/07/10 02:10:37;;;;;;;13.67;9.03;;;;;19.10;97370.00;;;;5008161;28;20240;-88
2023/07/10 02:13:32;;;;;;;12.03;8.27;;;;;18.80;97376.00;;;;5011584;28;20294;-90
2023/07/10 02:16:21;;;;;;;10.00;8.17;;;;;18.50;97370.00;;;;5002694;28;20236;-89
2023/07/10 02:19:12;;;;;;;13.00;10.07;;;;;18.20;97381.00;;;;5002314;28;20217;-90
2023/07/10 02:22:01;;;;;;;14.33;9.77;;;;;18.00;97374.00;;;;4995931;28;20218;-88
2023/07/10 02:24:50;;;;;;;9.87;8.97;;;;;17.90;97371.00;;;;4998390;28;20603;-91
2023/07/10 02:27:39;;;;;;;11.63;9.37;;;;;18.00;97366.00;;;;5004489;28;20240;-91
2023/07/10 02:30:30;;;;;;;10.17;9.17;;;;;18.10;97368.00;;;;5001703;28;20195;-91
2023/07/10 02:33:21;;;;;;;10.77;9.60;;;;;18.40;97366.00;;;;5003269;28;20221;-92
2023/07/10 02:36:10;;;;;;;13.20;10.73;;;;;18.50;97362.00;;;;5008726;28;20230;-91
2023/07/10 02:38:59;;;;;;;11.40;9.27;;;;;18.60;97367.00;;;;5004926;28;20211;-91
2023/07/10 02:41:48;;;;;;;14.17;10.27;;;;;19.00;97371.00;;;;5005620;28;20202;-91
2023/07/10 02:44:37;;;;;;;22.60;11.83;;;;;18.90;97359.00;;;;5004271;28;20218;-91
2023/07/10 02:47:28;;;;;;;10.13;9.13;;;;;18.20;97367.00;;;;5010857;28;20226;-91
2023/07/10 02:50:17;;;;;;;10.80;8.77;;;;;17.90;97361.00;;;;5002252;28;20209;-90
2023/07/10 02:53:06;;;;;;;10.90;9.33;;;;;17.80;97364.00;;;;4993571;28;20708;-91
2023/07/10 02:55:55;;;;;;;10.17;9.10;;;;;18.00;97355.00;;;;5005502;28;20221;-91
2023/07/10 02:58:45;;;;;;;11.00;9.70;;;;;18.20;97366.00;;;;4997825;28;20208;-91
2023/07/10 03:01:34;;;;;;;12.90;10.37;;;;;18.30;97353.00;;;;5000616;28;20625;-90
2023/07/10 03:04:24;;;;;;;12.37;11.07;;;;;18.50;97354.00;;;;5001030;28;20232;-91
2023/07/10 03:07:14;;;;;;;11.07;9.87;;;;;18.50;97359.00;;;;5004521;28;20311;-92
2023/07/10 03:10:09;;;;;;;13.03;10.20;;;;;18.80;97353.00;;;;4999527;28;20213;-92
2023/07/10 03:12:59;;;;;;;9.90;8.87;;;;;18.40;97354.00;;;;4997813;28;20201;-91
2023/07/10 03:16:00;;;;;;;11.23;9.10;;;;;18.20;97351.00;;;;5011517;28;20217;-90
2023/07/10 03:18:50;;;;;;;12.37;10.00;;;;;18.10;97350.00;;;;5002217;28;20202;-90
2023/07/10 03:21:40;;;;;;;11.03;9.97;;;;;18.20;97351.00;;;;5010795;28;20226;-92
2023/07/10 03:24:30;;;;;;;9.27;8.27;;;;;18.10;97352.00;;;;5003464;28;20260;-90
2023/07/10 03:27:19;;;;;;;14.13;9.93;;;;;18.20;97351.00;;;;4995692;28;20242;-91
2023/07/10 03:30:09;;;;;;;14.43;10.17;;;;;18.30;97353.00;;;;5004428;28;20592;-92
2023/07/10 03:32:58;;;;;;;10.47;9.17;;;;;17.80;97352.00;;;;5006446;28;20198;-91
2023/07/10 03:35:48;;;;;;;11.23;9.33;;;;;17.90;97354.00;;;;5008640;28;20202;-90
2023/07/10 03:38:39;;;;;;;13.50;10.20;;;;;18.00;97351.00;;;;5002318;28;20791;-92
2023/07/10 03:41:28;;;;;;;13.67;10.47;;;;;17.90;97349.00;;;;5008981;28;20720;-91
2023/07/10 03:44:17;;;;;;;11.87;9.87;;;;;18.00;97346.00;;;;5000475;28;20213;-91
2023/07/10 03:47:07;;;;;;;13.20;10.10;;;;;18.10;97344.00;;;;5002105;28;20230;-91
2023/07/10 03:49:56;;;;;;;13.27;10.23;;;;;17.90;97336.00;;;;5006734;28;20213;-90
2023/07/10 03:52:45;;;;;;;17.70;10.17;;;;;18.00;97338.00;;;;4993972;28;20202;-90
2023/07/10 03:55:36;;;;;;;13.67;10.90;;;;;17.80;97343.00;;;;4992621;28;20562;-90
2023/07/10 03:58:28;;;;;;;12.17;10.63;;;;;18.00;97353.00;;;;5003249;28;20707;-92
2023/07/10 04:01:17;;;;;;;11.27;9.77;;;;;18.10;97364.00;;;;5004940;28;20600;-90
2023/07/10 04:04:06;;;;;;;11.80;10.70;;;;;18.20;97365.00;;;;5009080;28;20209;-91
2023/07/10 04:06:56;;;;;;;14.67;11.20;;;;;18.00;97353.00;;;;5009163;28;20819;-90
2023/07/10 04:09:45;;;;;;;11.07;9.93;;;;;17.90;97349.00;;;;5008616;28;20229;-91
2023/07/10 04:12:35;;;;;;;13.67;10.37;;;;;17.70;97354.00;;;;5022717;28;20201;-92
2023/07/10 04:15:25;;;;;;;13.30;10.57;;;;;17.90;97350.00;;;;5008649;28;20582;-92
2023/07/10 04:18:15;;;;;;;15.03;11.17;;;;;18.00;97358.00;;;;5004404;28;20560;-91
2023/07/10 04:21:06;;;;;;;11.77;10.53;;;;;18.20;97365.00;;;;5004174;28;20748;-91
2023/07/10 04:23:56;;;;;;;13.03;11.70;;;;;18.20;97361.00;;;;5010130;28;20207;-91
2023/07/10 04:26:45;;;;;;;12.27;10.90;;;;;18.10;97362.00;;;;5015490;28;20236;-91
2023/07/10 04:29:36;;;;;;;18.00;12.17;;;;;18.30;97369.00;;;;5015560;28;20194;-91
2023/07/10 04:32:25;;;;;;;11.17;10.07;;;;;18.00;97366.00;;;;5015127;28;20210;-91
2023/07/10 04:35:15;;;;;;;11.40;10.20;;;;;18.30;97375.00;;;;5003234;28;20202;-90
2023/07/10 04:38:04;;;;;;;11.90;9.80;;;;;18.40;97379.00;;;;5003477;28;20217;-92
2023/07/10 04:40:54;;;;;;;11.50;10.30;;;;;18.60;97367.00;;;;5002678;28;20246;-91
2023/07/10 04:43:43;;;;;;;13.07;9.83;;;;;18.90;97370.00;;;;4997136;28;20414;-93
2023/07/10 04:46:34;;;;;;;13.17;11.80;;;;;19.30;97362.00;;;;5004979;28;20610;-91
2023/07/10 04:49:23;;;;;;;12.00;10.20;;;;;19.50;97379.00;;;;5011574;28;20671;-91
2023/07/10 04:52:12;;;;;;;11.73;9.53;;;;;19.60;97377.00;;;;5022127;28;20194;-91
2023/07/10 04:55:02;;;;;;;14.23;9.80;;;;;19.40;97381.00;;;;5010168;28;20218;-91
2023/07/10 04:57:52;;;;;;;13.17;10.60;;;;;19.30;97375.00;;;;5005530;28;20226;-91
2023/07/10 05:00:41;;;;;;;15.03;11.80;;;;;19.80;97379.00;;;;5013957;28;20221;-91
2023/07/10 05:03:32;;;;;;;13.43;10.33;;;;;19.70;97372.00;;;;5004371;28;20201;-91
2023/07/10 05:06:22;;;;;;;10.23;9.23;;;;;19.80;97368.00;;;;5002204;28;20243;-91
2023/07/10 05:09:12;;;;;;;12.37;9.60;;;;;20.10;97365.00;;;;5015683;28;20248;-92
2023/07/10 05:12:01;;;;;;;12.20;9.53;;;;;20.30;97366.00;;;;5011055;28;20202;-91
2023/07/10 05:14:50;;;;;;;11.40;10.13;;;;;20.40;97361.00;;;;5004003;28;20582;-91
2023/07/10 05:17:41;;;;;;;14.13;9.57;;;;;20.50;97362.00;;;;5006657;28;20255;-92
2023/07/10 05:20:31;;;;;;;11.50;9.90;;;;;20.70;97358.00;;;;5004091;28;20205;-91
2023/07/10 05:23:21;;;;;;;11.83;9.77;;;;;20.70;97362.00;;;;5006246;28;20205;-92
2023/07/10 05:26:12;;;;;;;11.00;9.50;;;;;21.10;97364.00;;;;5014242;28;20241;-91
2023/07/10 05:29:01;;;;;;;11.77;8.97;;;;;21.10;97359.00;;;;5008832;28;20313;-91
2023/07/10 05:31:50;;;;;;;12.27;10.83;;;;;21.30;97363.00;;;;5015509;28;20595;-91
2023/07/10 05:34:40;;;;;;;10.20;9.20;;;;;21.50;97355.00;;;;5012455;23;20238;-73
2023/07/10 05:37:30;;;;;;;15.13;10.53;;;;;21.80;97366.00;;;;5007553;28;20213;-72
2023/07/10 05:40:19;;;;;;;11.63;9.00;;;;;22.00;97354.00;;;;4993773;28;20242;-73
2023/07/10 05:43:08;;;;;;;11.60;9.27;;;;;22.40;97360.00;;;;5007286;28;20229;-73
2023/07/10 05:45:57;;;;;;;14.73;9.20;;;;;22.70;97357.00;;;;5003012;28;20288;-73
2023/07/10 05:48:47;;;;;;;10.27;9.17;;;;;22.80;97351.00;;;;4999156;28;20588;-72
2023/07/10 05:51:36;;;;;;;12.07;9.10;;;;;22.80;97357.00;;;;5004175;28;20218;-73
2023/07/10 05:54:26;;;;;;;10.67;9.67;;;;;23.10;97347.00;;;;5005001;28;20198;-73
2023/07/10 05:57:15;;;;;;;10.00;9.00;;;;;23.30;97359.00;;;;4998705;28;20214;-73
2023/07/10 06:00:05;;;;;;;9.80;8.57;;;;;23.30;97349.00;;;;4999149;28;20232;-73
2023/07/10 06:02:54;;;;;;;11.47;9.20;;;;;23.60;97356.00;;;;5003640;28;20229;-73
2023/07/10 06:05:43;;;;;;;10.40;8.53;;;;;23.50;97350.00;;;;5004246;28;20219;-72
2023/07/10 06:08:34;;;;;;;11.67;9.13;;;;;23.90;97354.00;;;;4998765;28;20598;-72
2023/07/10 06:11:25;;;;;;;13.43;9.27;;;;;23.90;97355.00;;;;5007363;28;20233;-71
2023/07/10 06:14:14;;;;;;;10.97;9.87;;;;;24.20;97347.00;;;;4991620;28;20205;-71
2023/07/10 06:17:03;;;;;;;10.90;8.93;;;;;24.40;97351.00;;;;5000410;28;20206;-72
2023/07/10 06:19:53;;;;;;;14.20;10.07;;;;;24.60;97344.00;;;;5001683;28;20234;-72
2023/07/10 06:22:42;;;;;;;12.27;8.43;;;;;24.70;97335.00;;;;5002720;28;20218;-72
2023/07/10 06:25:31;;;;;;;12.57;8.53;;;;;24.80;97343.00;;;;5005899;28;20228;-72
2023/07/10 06:28:22;;;;;;;12.00;9.17;;;;;24.80;97335.00;;;;5005690;28;20701;-72
2023/07/10 06:31:12;;;;;;;9.80;8.80;;;;;25.00;97332.00;;;;5000287;28;20232;-72
2023/07/10 06:34:01;;;;;;;13.47;8.53;;;;;25.00;97338.00;;;;5003353;28;20214;-72
2023/07/10 06:36:50;;;;;;;10.23;8.00;;;;;25.10;97340.00;;;;4998424;28;20218;-73
2023/07/10 06:39:39;;;;;;;12.60;9.40;;;;;25.40;97339.00;;;;5005493;28;20222;-72
2023/07/10 06:42:28;;;;;;;13.40;8.90;;;;;25.50;97346.00;;;;5010492;28;20230;-72
2023/07/10 06:45:19;;;;;;;10.70;8.70;;;;;26.10;97345.00;;;;5000772;28;20213;-73
2023/07/10 06:48:08;;;;;;;15.87;9.83;;;;;25.90;97338.00;;;;4991665;28;20210;-72
2023/07/10 06:50:57;;;;;;;10.23;8.97;;;;;26.20;97336.00;;;;4991765;28;20592;-73
2023/07/10 06:53:47;;;;;;;18.57;9.07;;;;;26.10;97340.00;;;;4992490;28;20194;-73
2023/07/10 06:56:36;;;;;;;14.03;9.37;;;;;26.20;97336.00;;;;4991160;28;20702;-72
2023/07/10 06:59:25;;;;;;;13.17;8.40;;;;;26.50;97337.00;;;;4991253;28;20260;-73
2023/07/10 07:02:15;;;;;;;16.63;9.60;;;;;26.60;97338.00;;;;4991828;28;20250;-72
2023/07/10 07:05:04;;;;;;;11.87;8.30;;;;;26.70;97333.00;;;;4993443;28;20221;-73
2023/07/10 07:07:53;;;;;;;10.50;8.20;;;;;26.80;97328.00;;;;4991350;28;20210;-74
2023/07/10 07:10:43;;;;;;;8.67;7.67;;;;;27.10;97326.00;;;;4991674;28;20605;-73
2023/07/10 07:13:32;;;;;;;9.33;7.87;;;;;27.40;97333.00;;;;4993620;28;20210;-73
2023/07/10 07:16:21;;;;;;;13.93;8.33;;;;;27.20;97331.00;;;;4996188;28;20212;-73
2023/07/10 07:19:11;;;;;;;12.77;8.83;;;;;27.60;97324.00;;;;4991900;28;20212;-73
2023/07/10 07:22:03;;;;;;;8.23;7.10;;;;;27.80;97322.00;;;;4992469;28;20600;-74
2023/07/10 07:24:52;;;;;;;8.83;7.90;;;;;28.30;97313.00;;;;4990178;28;20203;-75
2023/07/10 07:27:41;;;;;;;11.77;9.03;;;;;28.40;97311.00;;;;4992024;28;20211;-74
2023/07/10 07:30:30;;;;;;;8.97;7.83;;;;;28.60;97307.00;;;;4996864;28;20229;-73
2023/07/10 07:33:20;;;;;;;11.97;9.30;;;;;28.60;97303.00;;;;5001678;28;20231;-73
2023/07/10 07:36:10;;;;;;;11.67;9.43;;;;;28.70;97296.00;;;;4989959;28;20202;-72
2023/07/10 07:38:59;;;;;;;8.10;7.30;;;;;29.20;97304.00;;;;4996195;28;20228;-73
2023/07/10 07:41:48;;;;;;;8.13;7.33;;;;;29.30;97299.00;;;;4997672;28;20584;-73
2023/07/10 07:44:37;;;;;;;13.77;8.47;;;;;29.50;97293.00;;;;5001796;28;20207;-73
2023/07/10 07:47:28;;;;;;;14.43;7.93;;;;;29.80;97295.00;;;;5007833;28;20203;-74
2023/07/10 07:50:17;;;;;;;9.73;8.40;;;;;29.80;97289.00;;;;4993777;28;20236;-74
2023/07/10 07:53:07;;;;;;;10.63;9.10;;;;;29.70;97294.00;;;;4991299;28;20204;-73
2023/07/10 07:55:56;;;;;;;10.63;8.33;;;;;30.10;97304.00;;;;4990551;28;20206;-74
2023/07/10 07:58:45;;;;;;;11.90;7.37;;;;;30.30;97299.00;;;;4997538;28;20226;-73
2023/07/10 08:01:34;;;;;;;11.20;7.47;;;;;30.60;97300.00;;;;5004725;28;20233;-73
2023/07/10 08:04:24;;;;;;;11.53;8.17;;;;;30.70;97303.00;;;;5001215;28;20275;-73
2023/07/10 08:07:13;;;;;;;11.30;7.90;;;;;31.00;97308.00;;;;5005624;28;20216;-73
2023/07/10 08:10:03;;;;;;;9.87;7.90;;;;;30.90;97311.00;;;;5001136;28;20218;-73
2023/07/10 08:12:53;;;;;;;10.00;7.90;;;;;31.00;97310.00;;;;5000379;28;20578;-72
2023/07/10 08:15:42;;;;;;;10.53;8.23;;;;;30.90;97304.00;;;;4998262;28;20203;-73
2023/07/10 08:18:32;;;;;;;11.10;7.87;;;;;31.10;97293.00;;;;4995242;28;20209;-74
2023/07/10 08:21:21;;;;;;;9.70;7.57;;;;;31.20;97298.00;;;;5005584;28;20228;-73
2023/07/10 08:24:10;;;;;;;7.83;7.13;;;;;31.50;97300.00;;;;5005315;28;20242;-73
2023/07/10 08:27:01;;;;;;;10.47;7.60;;;;;31.70;97296.00;;;;5005171;28;20223;-72
2023/07/10 08:29:50;;;;;;;9.33;7.53;;;;;31.70;97297.00;;;;4997042;28;20252;-73
2023/07/10 08:32:39;;;;;;;10.43;7.80;;;;;31.70;97293.00;;;;5003319;28;20207;-73
2023/07/10 08:35:28;;;;;;;10.43;7.77;;;;;31.90;97291.00;;;;4996728;28;20263;-73
2023/07/10 08:38:17;;;;;;;10.07;8.43;;;;;31.90;97291.00;;;;4996122;28;20206;-73
2023/07/10 08:41:18;;;;;;;9.60;8.37;;;;;32.10;97290.00;;;;4998614;28;20225;-73
2023/07/10 08:44:10;;;;;;;11.73;7.05;;;;;32.60;97284.00;;;;5006675;28;20246;-73
2023/07/10 08:47:01;;;;;;;9.82;7.22;;;;;32.20;97283.00;;;;5005034;28;20244;-73
2023/07/10 08:49:54;;;;;;;9.75;6.70;;;;;32.80;97275.00;;;;5011149;28;20837;-73
2023/07/10 08:52:50;;;;;;;8.27;7.28;;;;;32.80;97282.00;;;;5008458;28;20207;-73
2023/07/10 08:55:46;;;;;;;9.05;7.55;;;;;32.90;97277.00;;;;5007599;28;20216;-73
2023/07/10 08:58:39;;;;;;;9.98;8.30;;;;;33.20;97273.00;;;;5009627;28;20573;-73
2023/07/10 09:01:32;;;;;;;12.82;7.88;;;;;33.40;97282.00;;;;5007667;28;20223;-73
2023/07/10 09:04:22;;;;;;;9.13;8.07;;;;;33.20;97279.00;;;;5001982;28;20693;-73
2023/07/10 09:07:11;;;;;;;8.98;7.15;;;;;33.60;97274.00;;;;5008979;28;20207;-74
2023/07/10 09:10:03;;;;;;;8.15;7.38;;;;;33.30;97271.00;;;;4995248;28;20232;-73
2023/07/10 09:12:54;;;;;;;8.98;8.07;;;;;33.40;97271.00;;;;4999532;28;20389;-74
2023/07/10 09:15:45;;;;;;;8.93;7.93;;;;;33.80;97269.00;;;;5003149;28;20745;-74
2023/07/10 09:18:41;;;;;;;9.70;7.75;;;;;34.30;97274.00;;;;5002985;28;20204;-74
2023/07/10 09:21:32;;;;;;;8.82;7.18;;;;;34.50;97268.00;;;;5008594;28;20721;-74
2023/07/10 09:24:23;;;;;;;8.15;7.35;;;;;34.70;97255.00;;;;5008824;28;20233;-75
2023/07/10 09:27:14;;;;;;;8.38;7.20;;;;;34.10;97257.00;;;;5011030;28;20208;-75
2023/07/10 09:30:03;;;;;;;9.82;7.97;;;;;34.70;97264.00;;;;5007773;28;20229;-74
2023/07/10 09:32:52;;;;;;;8.65;6.63;;;;;34.90;97256.00;;;;5002765;28;20211;-74
2023/07/10 09:35:44;;;;;;;9.88;6.97;;;;;35.00;97261.00;;;;5002795;28;20278;-74
2023/07/10 09:38:33;;;;;;;8.60;7.05;;;;;35.20;97249.00;;;;5009135;28;20210;-74
2023/07/10 09:41:24;;;;;;;8.93;6.75;;;;;35.60;97246.00;;;;4999690;28;20230;-74
2023/07/10 09:44:16;;;;;;;8.48;6.35;;;;;36.00;97243.00;;;;4998910;28;20246;-74
2023/07/10 09:47:10;;;;;;;7.25;6.18;;;32.60;90.70;36.10;97241.00;;;;5000211;28;20214;-74
2023/07/10 09:50:01;;;;;;;7.43;6.72;;;32.70;90.40;36.40;97246.00;;;;4996673;28;20229;-74
2023/07/10 09:52:56;;;;;;;10.82;6.38;;;32.90;90.00;36.60;97234.00;;;;4991399;28;20202;-74
2023/07/10 09:55:45;;;;;;;7.57;6.53;;;33.10;87.80;36.80;97228.00;;;;5002379;28;20198;-74
2023/07/10 09:58:45;;;;;;;8.25;7.25;;;33.40;85.90;36.50;97216.00;;;;4992408;28;20198;-74
2023/07/10 10:01:34;;;;;;;9.75;7.20;;;33.50;82.60;36.80;97211.00;;;;5001090;28;20226;-74
2023/07/10 10:04:27;;;;;;;7.97;7.15;;;33.60;83.20;36.70;97212.00;;;;5006730;28;20236;-73
2023/07/10 10:07:19;;;;;;;7.72;6.00;;;33.70;80.30;36.10;97222.00;;;;4994965;28;20209;-75
2023/07/10 10:10:32;;;;;;;6.70;5.30;;;33.70;70.60;36.00;97216.00;;;;4992208;28;20726;-73
2023/07/10 10:13:26;;;;;;;5.22;4.72;;;33.50;68.30;37.10;97211.00;;;;4993602;28;20218;-74
2023/07/10 10:16:23;;;;;;;6.60;5.82;;;33.70;68.60;36.60;97200.00;;;;4993800;28;20210;-74
2023/07/10 10:19:21;;;;;;;7.32;5.25;;;33.70;66.00;37.50;97201.00;;;;5005505;28;20205;-74
2023/07/10 10:22:11;;;;;;;7.38;4.78;;;33.80;64.60;37.30;97192.00;;;;4995212;28;20198;-74
2023/07/10 10:25:01;;;;;;;5.57;4.25;;;33.90;59.30;37.60;97192.00;;;;4990109;28;20244;-73
2023/07/10 10:27:59;;;;;;;6.10;5.32;;;34.10;58.80;37.80;97189.00;;;;4997737;28;20198;-73
2023/07/10 10:30:51;;;;;;;5.68;4.38;;;34.30;60.20;36.30;97191.00;;;;4997717;28;20710;-73
2023/07/10 10:33:56;;;;;;;4.88;3.75;;;34.30;54.00;37.40;97183.00;;;;4991761;28;20217;-74
2023/07/10 10:37:03;;;;;;;6.18;5.07;;;34.40;54.60;37.10;97180.00;;;;4999539;28;20199;-73
2023/07/10 10:39:58;;;;;;;5.45;4.13;;;34.40;49.00;37.90;97182.00;;;;4999362;28;20209;-73
2023/07/10 10:42:55;;;;;;;6.03;4.60;;;34.50;50.30;38.00;97183.00;;;;4997184;28;20959;-73
2023/07/10 10:45:49;;;;;;;5.25;4.57;;;34.60;51.10;37.70;97179.00;;;;5007677;28;20217;-73
2023/07/10 10:48:49;;;;;;;7.93;5.18;;;34.70;52.60;37.90;97172.00;;;;4994658;28;20210;-73
2023/07/10 10:51:46;;;;;;;6.35;5.32;;;34.90;51.40;39.10;97169.00;;;;4997394;28;20221;-73
2023/07/10 10:54:45;;;;;;;6.88;5.78;;;35.10;52.80;39.00;97183.00;;;;5003858;28;20205;-72
2023/07/10 10:57:44;;;;;;;6.97;4.50;;;35.40;53.10;37.60;97154.00;;;;5007332;28;20220;-72
2023/07/10 11:00:47;;;;;;;8.88;4.88;;;35.50;48.60;38.10;97151.00;;;;5020857;23;20617;-70
2023/07/10 11:03:40;;;;;;;5.88;4.28;;;35.40;47.20;38.20;97153.00;;;;5000227;28;20219;-71
2023/07/10 11:06:44;;;;;;;6.88;4.22;;;35.30;49.40;37.80;97141.00;;;;4994546;28;20210;-70
2023/07/10 11:09:40;;;;;;;6.15;4.10;;;35.30;48.80;37.80;97141.00;;;;4990322;28;20221;-70
2023/07/10 11:12:32;;;;;;;6.85;5.05;;;35.30;50.30;37.90;97133.00;;;;5003567;28;20600;-70
2023/07/10 11:15:23;;;;;;;5.90;5.05;;;35.40;49.30;37.40;97144.00;;;;4999426;28;20201;-70
2023/07/10 11:18:16;;;;;;;5.93;5.32;;;35.30;50.20;37.10;97156.00;;;;4991425;28;20207;-70
2023/07/10 11:21:05;;;;;;;7.22;4.75;;;35.10;49.30;36.80;97160.00;;;;4992771;28;20222;-70
2023/07/10 11:23:55;;;;;;;8.98;4.97;;;34.60;49.30;38.40;97146.00;;;;4995813;28;20272;-70
2023/07/10 11:26:50;;;;;;;9.52;4.78;;;34.70;52.30;38.50;97138.00;;;;4989652;28;20700;-70
2023/07/10 11:29:44;;;;;;;6.50;5.78;;;35.00;51.20;37.00;97146.00;;;;4996378;28;20210;-70
2023/07/10 11:32:37;;;;;;;5.10;4.63;;;34.90;50.20;38.10;97125.00;;;;4990362;28;20578;-71
2023/07/10 11:35:28;;;;;;;7.65;5.07;;;35.00;51.90;38.90;97149.00;;;;4996115;28;20206;-70
2023/07/10 11:38:19;;;;;;;8.52;5.93;;;35.20;51.80;38.20;97148.00;;;;4998798;28;20210;-70
2023/07/10 11:41:27;;;;;;;7.60;5.45;;;35.30;51.40;38.40;97124.00;;;;5001247;28;20221;-70
2023/07/10 11:44:21;;;;;;;5.72;4.97;;;35.30;49.90;38.90;97129.00;;;;5008001;28;20722;-70
2023/07/10 11:47:28;;;;;;;5.75;4.60;;;35.40;52.40;37.20;97130.00;;;;5003465;28;20210;-70
2023/07/10 11:50:25;;;;;;;8.30;5.15;;;35.20;49.30;37.90;97146.00;;;;4997630;28;20221;-70
2023/07/10 11:53:25;;;;;;;5.43;4.43;;;35.10;49.40;38.70;97138.00;;;;5005340;28;20212;-70
2023/07/10 11:56:16;;;;;;;9.13;5.47;;;35.10;50.00;39.10;97103.00;;;;4990462;28;20201;-70
2023/07/10 11:59:21;;;;;;;6.35;5.43;;;35.40;51.10;38.90;97114.00;;;;4998906;28;20269;-70
2023/07/10 12:02:34;;;;;;;6.20;5.25;;;35.60;48.10;40.60;97091.00;;;;5008674;28;20202;-70
2023/07/10 12:05:26;;;;;;;5.78;5.22;;;36.10;49.10;40.60;97122.00;;;;5001409;28;20225;-70
2023/07/10 12:08:16;;;;;;;5.47;4.97;;;36.50;48.40;38.90;97143.00;;;;4997624;28;20214;-70
2023/07/10 12:11:06;;;;;;;9.55;5.78;;;36.50;48.90;37.80;97079.00;;;;5002301;28;20687;-70
2023/07/10 12:13:54;;;;;;;6.05;5.45;;;36.20;52.90;37.20;97098.00;;;;4994256;28;20190;-69
2023/07/10 12:16:52;;;;;;;5.72;5.22;;;35.70;51.50;36.90;97092.00;;;;5002894;28;20233;-69
2023/07/10 12:19:49;;;;;;;12.48;5.35;;;35.30;52.30;36.90;97072.00;;;;5007085;28;20198;-70
2023/07/10 12:22:39;;;;;;;5.63;4.88;;;35.00;53.70;38.70;97068.00;;;;4996231;28;20205;-69
2023/07/10 12:25:28;;;;;;;5.60;4.65;;;35.20;51.80;40.20;97072.00;;;;5001992;28;20609;-70
2023/07/10 12:28:21;;;;;;;6.32;5.43;;;35.80;52.50;40.10;97070.00;;;;4992717;28;20203;-70
2023/07/10 12:31:15;;;;;;;5.80;5.18;;;36.20;52.50;40.70;97091.00;;;;4993996;28;20234;-70
2023/07/10 12:34:05;;;;;;;5.75;5.15;;;36.70;51.70;39.00;97065.00;;;;4994097;28;20234;-70
2023/07/10 12:36:58;;;;;;;6.57;5.68;;;36.80;49.90;39.00;97082.00;;;;4994408;28;20199;-70
2023/07/10 12:39:52;;;;;;;8.15;5.47;;;36.50;51.40;36.70;97100.00;;;;4997048;28;20202;-70
2023/07/10 12:42:44;;;;;;;6.88;5.72;;;35.80;52.00;36.90;97066.00;;;;4997081;28;20664;-67
2023/07/10 12:45:34;;;;;;;5.70;5.18;;;34.90;51.90;36.90;97087.00;;;;4995730;28;20229;-69
2023/07/10 12:48:24;;;;;;;5.47;4.93;;;34.80;52.80;36.90;97090.00;;;;5002194;28;20207;-69
2023/07/10 12:51:24;;;;;;;7.63;4.55;;;34.70;53.60;35.80;97116.00;;;;5005352;28;20227;-68
2023/07/10 12:54:21;;;;;;;6.32;4.85;;;34.30;53.50;35.20;97075.00;;;;5001064;28;20203;-66
2023/07/10 12:57:15;;;;;;;7.57;5.05;;;;;36.00;97061.00;;;;4992304;28;20220;-67
2023/07/10 13:00:08;;;;;;;6.32;5.32;;;;;36.20;97105.00;;;;4994903;28;20252;-67
2023/07/10 13:02:58;;;;;;;6.30;5.70;;;;;35.50;97100.00;;;;4992614;28;20202;-67
2023/07/10 13:05:53;;;;;;;6.10;5.50;;;;;35.40;97115.00;;;;4999900;28;20222;-68
2023/07/10 13:08:42;;;;;;;7.57;5.68;;;;;35.80;97115.00;;;;5000991;28;20232;-68
2023/07/10 13:11:31;;;;;;;6.03;5.43;;;;;35.10;97111.00;;;;5000825;28;20221;-69
2023/07/10 13:14:30;;;;;;;6.35;4.68;;;;;35.60;97094.00;;;;5003663;28;20203;-69
2023/07/10 13:17:22;;;;;;;6.10;5.20;;;;;36.30;97070.00;;;;4992971;28;20207;-68
2023/07/10 13:20:20;;;;;;;5.10;4.55;;;;;35.80;97079.00;;;;4998023;28;20281;-69
2023/07/10 13:23:09;;;;;;;6.25;5.65;;;;;35.60;97079.00;;;;4997078;28;20206;-68
2023/07/10 13:25:58;;;;;;;5.63;4.97;;;;;35.40;97083.00;;;;4993378;28;20226;-69
2023/07/10 13:28:48;;;;;;;7.40;4.90;;;;;35.10;97086.00;;;;4995023;28;20209;-68
2023/07/10 13:31:37;;;;;;;6.38;4.65;;;;;34.30;97086.00;;;;5002246;28;20253;-68
2023/07/10 13:34:26;;;;;;;7.53;5.07;;;;;34.30;97085.00;;;;5007058;28;20205;-68
2023/07/10 13:37:21;;;;;;;7.68;5.95;;;;;33.90;97083.00;;;;4996604;28;20220;-69
2023/07/10 13:40:13;;;;;;;5.07;4.45;;;;;33.90;97090.00;;;;4992671;28;20233;-68
2023/07/10 13:43:03;;;;;;;6.15;4.68;;;;;33.60;97090.00;;;;4997446;28;20208;-67
2023/07/10 13:45:59;;;;;;;6.88;5.25;;;;;33.80;97104.00;;;;4997888;28;20232;-69
2023/07/10 13:48:53;;;;;;;6.13;4.97;;;;;33.50;97102.00;;;;4999439;28;20209;-69